Time;durP1;ratioP1;P1;durP2;ratioP2;P2;SDS_P1;SDS_P2;PMS_P1;PMS_P2;Temp;Humidity;BMP_temperature;BMP_pressure;BME280_temperature;BME280_humidity;BME280_pressure;Samples;Min_cycle;Max_cycle;Signal;HPM_P1;HPM_P2
2024/02/10 00:00:16;;;;;;;1999.90;999.90;;;;;;;;;;5042593;28;20060;-85
2024/02/10 00:02:43;;;;;;;1999.90;999.90;;;;;;;;;;5049095;28;20037;-86
2024/02/10 00:05:09;;;;;;;1999.90;999.90;;;;;;;;;;5046603;28;20041;-85
2024/02/10 00:07:36;;;;;;;1999.90;999.90;;;;;;;;;;5044897;28;20045;-85
2024/02/10 00:10:02;;;;;;;1999.90;999.90;;;;;;;;;;5045965;28;20477;-85
2024/02/10 00:12:29;;;;;;;1999.90;999.90;;;;;;;;;;5043067;28;20051;-84
2024/02/10 00:14:57;;;;;;;1999.90;999.90;;;;;;;;;;5048201;28;20054;-85
2024/02/10 00:17:26;;;;;;;1999.90;999.90;;;;;;;;;;5053399;28;20057;-85
2024/02/10 00:19:55;;;;;;;1999.90;999.90;;;;;;;;;;5043531;28;20048;-86
2024/02/10 00:22:22;;;;;;;1999.90;999.90;;;;;;;;;;5050942;28;20056;-86
2024/02/10 00:24:55;;;;;;;1999.90;999.90;;;;;;;;;;5054170;28;20044;-85
2024/02/10 00:27:22;;;;;;;1999.90;999.90;;;;;;;;;;5046191;28;20056;-85
2024/02/10 00:29:48;;;;;;;1999.90;999.90;;;;;;;;;;5046397;28;20068;-86
2024/02/10 00:32:18;;;;;;;1999.90;999.90;;;;;;;;;;5045393;28;20053;-85
2024/02/10 00:34:44;;;;;;;1999.90;999.90;;;;;;;;;;5054127;28;20053;-85
2024/02/10 00:37:16;;;;;;;1999.90;999.90;;;;;;;;;;5047251;28;20049;-85
2024/02/10 00:39:43;;;;;;;1999.90;999.90;;;;;;;;;;5047456;28;20052;-86
2024/02/10 00:42:10;;;;;;;1999.90;999.90;;;;;;;;;;5036909;28;20486;-84
2024/02/10 00:44:38;;;;;;;1999.90;999.90;;;;;;;;;;5042120;28;20048;-85
2024/02/10 00:47:12;;;;;;;1999.90;999.90;;;;;;;;;;5045855;28;20041;-85
2024/02/10 00:49:40;;;;;;;1999.90;999.90;;;;;;;;;;5040718;28;20048;-85
2024/02/10 00:52:08;;;;;;;1999.90;999.90;;;;;;;;;;5044545;28;20056;-86
2024/02/10 00:54:37;;;;;;;1999.90;999.90;;;;;;;;;;5045806;28;20052;-86
2024/02/10 00:57:10;;;;;;;1999.90;999.90;;;;;;;;;;5053065;28;20041;-85
2024/02/10 00:59:37;;;;;;;1999.90;999.90;;;;;;;;;;5043340;28;20501;-85
2024/02/10 01:02:05;;;;;;;1999.90;999.90;;;;;;;;;;5043567;28;20048;-85
2024/02/10 01:04:32;;;;;;;1999.90;999.90;;;;;;;;;;5048937;28;20048;-85
2024/02/10 01:07:01;;;;;;;1999.90;999.90;;;;;;;;;;5049699;28;20056;-85
2024/02/10 01:09:28;;;;;;;1999.90;999.90;;;;;;;;;;5044852;28;20079;-85
2024/02/10 01:11:54;;;;;;;1999.90;999.90;;;;;;;;;;5046228;28;20058;-86
2024/02/10 01:14:21;;;;;;;1999.90;999.90;;;;;;;;;;5049774;28;20622;-86
2024/02/10 01:16:47;;;;;;;1999.90;999.90;;;;;;;;;;5045186;28;20048;-86
2024/02/10 01:19:19;;;;;;;1999.90;999.90;;;;;;;;;;5054038;28;20122;-84
2024/02/10 01:21:45;;;;;;;1999.90;999.90;;;;;;;;;;5051048;28;20067;-86
2024/02/10 01:24:13;;;;;;;1999.90;999.90;;;;;;;;;;5061097;28;20067;-86
2024/02/10 01:26:40;;;;;;;1999.90;999.90;;;;;;;;;;5054382;28;20067;-86
2024/02/10 01:29:09;;;;;;;1999.90;999.90;;;;;;;;;;5045492;28;20056;-85
2024/02/10 01:31:35;;;;;;;1999.90;999.90;;;;;;;;;;5041999;28;20041;-86
2024/02/10 01:34:02;;;;;;;1999.90;999.90;;;;;;;;;;5046230;28;20048;-86
2024/02/10 01:36:33;;;;;;;1999.90;999.90;;;;;;;;;;5045319;28;20064;-84
2024/02/10 01:39:00;;;;;;;1999.90;999.90;;;;;;;;;;5056729;28;20053;-85
2024/02/10 01:41:28;;;;;;;1999.90;999.90;;;;;;;;;;5046083;28;20045;-84
2024/02/10 01:43:55;;;;;;;1999.90;999.90;;;;;;;;;;5053004;28;20056;-86
2024/02/10 01:46:22;;;;;;;1999.90;999.90;;;;;;;;;;5037634;28;20063;-85
2024/02/10 01:48:49;;;;;;;1999.90;999.90;;;;;;;;;;5049244;28;20049;-85
2024/02/10 01:51:18;;;;;;;1999.90;999.90;;;;;;;;;;5047753;28;20067;-86
2024/02/10 01:53:49;;;;;;;1999.90;999.90;;;;;;;;;;5042199;28;20073;-86
2024/02/10 01:56:16;;;;;;;1999.90;999.90;;;;;;;;;;5053171;28;20136;-86
2024/02/10 01:58:46;;;;;;;1999.90;999.90;;;;;;;;;;5045286;28;20424;-85
2024/02/10 02:01:15;;;;;;;1999.90;999.90;;;;;;;;;;5037216;28;20478;-85
2024/02/10 02:03:43;;;;;;;1999.90;999.90;;;;;;;;;;5049608;28;20138;-86
2024/02/10 02:06:10;;;;;;;1999.90;999.90;;;;;;;;;;5038703;28;20452;-84
2024/02/10 02:08:37;;;;;;;1999.90;999.90;;;;;;;;;;5041826;28;20054;-86
2024/02/10 02:11:04;;;;;;;1999.90;999.90;;;;;;;;;;5050137;28;20055;-85
2024/02/10 02:13:31;;;;;;;1999.90;999.90;;;;;;;;;;5046938;28;20045;-84
2024/02/10 02:15:59;;;;;;;1999.90;999.90;;;;;;;;;;5045390;28;20412;-85
2024/02/10 02:18:26;;;;;;;1999.90;999.90;;;;;;;;;;5051282;28;20051;-85
2024/02/10 02:20:52;;;;;;;1999.90;999.90;;;;;;;;;;5040561;28;20072;-86
2024/02/10 02:23:26;;;;;;;1999.90;999.90;;;;;;;;;;5044425;28;20053;-85
2024/02/10 02:25:52;;;;;;;1999.90;999.90;;;;;;;;;;5044950;28;20059;-84
2024/02/10 02:28:21;;;;;;;1999.90;999.90;;;;;;;;;;5047404;28;20056;-86
2024/02/10 02:30:49;;;;;;;1999.90;999.90;;;;;;;;;;5038028;28;20084;-86
2024/02/10 02:33:16;;;;;;;1999.90;999.90;;;;;;;;;;5043729;28;20050;-86
2024/02/10 02:35:43;;;;;;;1999.90;999.90;;;;;;;;;;5046527;28;20045;-86
2024/02/10 02:38:10;;;;;;;1999.90;999.90;;;;;;;;;;5054168;28;20079;-87
2024/02/10 02:40:37;;;;;;;1999.90;999.90;;;;;;;;;;5040942;28;20045;-85
2024/02/10 02:43:04;;;;;;;1999.90;999.90;;;;;;;;;;5048465;28;20075;-86
2024/02/10 02:45:31;;;;;;;1999.90;999.90;;;;;;;;;;5046037;28;20417;-86
2024/02/10 02:48:01;;;;;;;1999.90;999.90;;;;;;;;;;5049735;28;20048;-86
2024/02/10 02:50:28;;;;;;;1999.90;999.90;;;;;;;;;;5048760;28;20055;-86
2024/02/10 02:52:57;;;;;;;1999.90;999.90;;;;;;;;;;5051963;28;20635;-86
2024/02/10 02:55:24;;;;;;;1999.90;999.90;;;;;;;;;;5039523;28;20072;-86
2024/02/10 02:57:52;;;;;;;1999.90;999.90;;;;;;;;;;5046115;28;20049;-86
2024/02/10 03:00:19;;;;;;;1999.90;999.90;;;;;;;;;;5042949;28;20045;-86
2024/02/10 03:02:46;;;;;;;1999.90;999.90;;;;;;;;;;5048777;28;20508;-85
2024/02/10 03:05:13;;;;;;;1999.90;999.90;;;;;;;;;;5049065;28;20418;-86
2024/02/10 03:07:45;;;;;;;1999.90;999.90;;;;;;;;;;5039068;28;20050;-86
2024/02/10 03:10:12;;;;;;;1999.90;999.90;;;;;;;;;;5053641;28;20044;-86
2024/02/10 03:12:39;;;;;;;1999.90;999.90;;;;;;;;;;5047175;28;20049;-86
2024/02/10 03:15:09;;;;;;;1999.90;999.90;;;;;;;;;;5050175;28;20048;-85
2024/02/10 03:17:36;;;;;;;1999.90;999.90;;;;;;;;;;5058680;28;20110;-86
2024/02/10 03:20:05;;;;;;;1999.90;999.90;;;;;;;;;;5046963;28;20512;-86
2024/02/10 03:22:31;;;;;;;1999.90;999.90;;;;;;;;;;5051250;28;20095;-86
2024/02/10 03:24:58;;;;;;;1999.90;999.90;;;;;;;;;;5045898;28;20052;-86
2024/02/10 03:27:24;;;;;;;1999.90;999.90;;;;;;;;;;5044924;28;20569;-86
2024/02/10 03:29:51;;;;;;;1999.90;999.90;;;;;;;;;;5048372;28;20076;-85
2024/02/10 03:32:19;;;;;;;1999.90;999.90;;;;;;;;;;5049037;28;20049;-86
2024/02/10 03:34:46;;;;;;;1999.90;999.90;;;;;;;;;;5042810;28;20046;-86
2024/02/10 03:37:15;;;;;;;1999.90;999.90;;;;;;;;;;5043959;28;20057;-85
2024/02/10 03:39:41;;;;;;;1999.90;999.90;;;;;;;;;;5045892;28;20052;-86
2024/02/10 03:42:08;;;;;;;1999.90;999.90;;;;;;;;;;5048876;28;20045;-86
2024/02/10 03:44:34;;;;;;;1999.90;999.90;;;;;;;;;;5060085;28;20058;-86
2024/02/10 03:47:01;;;;;;;1999.90;999.90;;;;;;;;;;5052569;28;20395;-86
2024/02/10 03:49:29;;;;;;;1999.90;999.90;;;;;;;;;;5047035;28;20045;-86
2024/02/10 03:51:55;;;;;;;1999.90;999.90;;;;;;;;;;5053658;28;20056;-86
2024/02/10 03:54:22;;;;;;;1999.90;999.90;;;;;;;;;;5050540;28;20045;-86
2024/02/10 03:56:50;;;;;;;1999.90;999.90;;;;;;;;;;5044950;28;20072;-86
2024/02/10 03:59:16;;;;;;;1999.90;999.90;;;;;;;;;;5060162;28;20107;-86
2024/02/10 04:01:43;;;;;;;1999.90;999.90;;;;;;;;;;5049489;28;20045;-86
2024/02/10 04:04:10;;;;;;;1999.90;999.90;;;;;;;;;;5055214;28;20055;-85
2024/02/10 04:06:39;;;;;;;1999.90;999.90;;;;;;;;;;5045091;28;20541;-87
2024/02/10 04:09:06;;;;;;;1999.90;999.90;;;;;;;;;;5053952;28;20390;-85
2024/02/10 04:11:34;;;;;;;1999.90;999.90;;;;;;;;;;5053095;28;20045;-86
2024/02/10 04:14:00;;;;;;;1999.90;999.90;;;;;;;;;;5054581;28;20061;-86
2024/02/10 04:16:27;;;;;;;1999.90;999.90;;;;;;;;;;5060549;28;20041;-86
2024/02/10 04:18:54;;;;;;;1999.90;999.90;;;;;;;;;;5058485;28;20077;-86
2024/02/10 04:21:21;;;;;;;1999.90;999.90;;;;;;;;;;5058416;28;20051;-85
2024/02/10 04:23:54;;;;;;;1999.90;999.90;;;;;;;;;;5049843;28;20048;-85
2024/02/10 04:26:20;;;;;;;1999.90;999.90;;;;;;;;;;5051182;28;20064;-86
2024/02/10 04:28:46;;;;;;;1999.90;999.90;;;;;;;;;;5053159;28;20509;-86
2024/02/10 04:31:13;;;;;;;1999.90;999.90;;;;;;;;;;5049993;28;20049;-86
2024/02/10 04:33:45;;;;;;;1999.90;999.90;;;;;;;;;;5050100;28;20854;-86
2024/02/10 04:36:12;;;;;;;1999.90;999.90;;;;;;;;;;5051534;28;20099;-85
2024/02/10 04:38:39;;;;;;;1999.90;999.90;;;;;;;;;;5050200;28;20524;-86
2024/02/10 04:41:07;;;;;;;1999.90;999.90;;;;;;;;;;5053855;28;20051;-86
2024/02/10 04:43:35;;;;;;;1999.90;999.90;;;;;;;;;;5049083;28;20059;-86
2024/02/10 04:46:02;;;;;;;1999.90;999.90;;;;;;;;;;5041469;28;20050;-86
2024/02/10 04:48:28;;;;;;;1999.90;999.90;;;;;;;;;;5043450;28;20048;-85
2024/02/10 04:50:56;;;;;;;1999.90;999.90;;;;;;;;;;5049724;28;20045;-85
2024/02/10 04:53:26;;;;;;;1999.90;999.90;;;;;;;;;;5040754;28;20095;-85
2024/02/10 04:55:53;;;;;;;1999.90;999.90;;;;;;;;;;5050968;28;20059;-86
2024/02/10 04:58:21;;;;;;;1999.90;999.90;;;;;;;;;;5051838;28;20067;-86
2024/02/10 05:00:48;;;;;;;1999.90;999.90;;;;;;;;;;5048637;28;20052;-86
2024/02/10 05:03:14;;;;;;;1999.90;999.90;;;;;;;;;;5039384;28;20057;-86
2024/02/10 05:05:41;;;;;;;1999.90;999.90;;;;;;;;;;5050708;28;20067;-86
2024/02/10 05:08:12;;;;;;;1999.90;999.90;;;;;;;;;;5045959;28;20049;-85
2024/02/10 05:10:40;;;;;;;1999.90;999.90;;;;;;;;;;5039051;28;20128;-85
2024/02/10 05:13:06;;;;;;;1999.90;999.90;;;;;;;;;;5041740;28;20046;-86
2024/02/10 05:15:34;;;;;;;1999.90;999.90;;;;;;;;;;5052698;28;20041;-86
2024/02/10 05:18:04;;;;;;;1999.90;999.90;;;;;;;;;;5057214;28;20055;-86
2024/02/10 05:20:31;;;;;;;1999.90;999.90;;;;;;;;;;5041983;28;20045;-86
2024/02/10 05:22:58;;;;;;;1999.90;999.90;;;;;;;;;;5043794;28;20045;-86
2024/02/10 05:25:27;;;;;;;1999.90;999.90;;;;;;;;;;5052010;28;20183;-86
2024/02/10 05:27:54;;;;;;;1999.90;999.90;;;;;;;;;;5064467;28;20149;-86
2024/02/10 05:30:24;;;;;;;1999.90;999.90;;;;;;;;;;5044182;28;20057;-86
2024/02/10 05:32:52;;;;;;;1999.90;999.90;;;;;;;;;;5043626;28;20050;-86
2024/02/10 05:35:19;;;;;;;1999.90;999.90;;;;;;;;;;5051598;28;20056;-86
2024/02/10 05:37:47;;;;;;;1999.90;999.90;;;;;;;;;;5048872;28;20049;-86
2024/02/10 05:40:14;;;;;;;1999.90;999.90;;;;;;;;;;5049915;28;20049;-86
2024/02/10 05:42:42;;;;;;;1999.90;999.90;;;;;;;;;;5046542;28;20420;-86
2024/02/10 05:45:10;;;;;;;1999.90;999.90;;;;;;;;;;5051130;28;20048;-85
2024/02/10 05:47:37;;;;;;;1999.90;999.90;;;;;;;;;;5047233;28;20098;-86
2024/02/10 05:50:08;;;;;;;1999.90;999.90;;;;;;;;;;5047047;28;20045;-87
2024/02/10 05:52:41;;;;;;;1999.90;999.90;;;;;;;;;;5057658;28;20056;-86
2024/02/10 05:55:08;;;;;;;1999.90;999.90;;;;;;;;;;5048185;28;20071;-87
2024/02/10 05:57:36;;;;;;;1999.90;999.90;;;;;;;;;;5051127;28;20131;-87
2024/02/10 06:00:17;;;;;;;1999.90;999.90;;;;;;;;;;5051354;28;20690;-87
2024/02/10 06:02:44;;;;;;;1999.90;999.90;;;;;;;;;;5049925;28;20108;-86
2024/02/10 06:05:13;;;;;;;1999.90;999.90;;;;;;;;;;5048079;28;20060;-86
2024/02/10 06:07:41;;;;;;;1999.90;999.90;;;;;;;;;;5042769;28;20124;-86
2024/02/10 06:10:12;;;;;;;1999.90;999.90;;;;;;;;;;5047993;28;20048;-87
2024/02/10 06:12:39;;;;;;;1999.90;999.90;;;;;;;;;;5050670;28;20044;-87
2024/02/10 06:15:09;;;;;;;1999.90;999.90;;;;;;;;;;5041915;28;20048;-87
2024/02/10 06:17:38;;;;;;;1999.90;999.90;;;;;;;;;;5047518;28;20053;-85
2024/02/10 06:20:06;;;;;;;1999.90;999.90;;;;;;;;;;5040766;28;20080;-86
2024/02/10 06:22:35;;;;;;;1999.90;999.90;;;;;;;;;;5043457;28;20057;-86
2024/02/10 06:25:02;;;;;;;1999.90;999.90;;;;;;;;;;5049091;28;20049;-86
2024/02/10 06:27:29;;;;;;;1999.90;999.90;;;;;;;;;;5042097;28;20053;-86
2024/02/10 06:29:58;;;;;;;1999.90;999.90;;;;;;;;;;5043009;28;20099;-87
2024/02/10 06:32:24;;;;;;;1999.90;999.90;;;;;;;;;;5049401;28;20041;-86
2024/02/10 06:34:51;;;;;;;1999.90;999.90;;;;;;;;;;5041955;28;20054;-86
2024/02/10 06:37:19;;;;;;;1999.90;999.90;;;;;;;;;;5056770;28;20128;-87
2024/02/10 06:39:46;;;;;;;1999.90;999.90;;;;;;;;;;5046076;28;20074;-87
2024/02/10 06:42:13;;;;;;;1999.90;999.90;;;;;;;;;;5043133;28;20053;-86
2024/02/10 06:44:40;;;;;;;1999.90;999.90;;;;;;;;;;5042015;28;20054;-87
2024/02/10 06:47:07;;;;;;;1999.90;999.90;;;;;;;;;;5045204;28;20620;-86
2024/02/10 06:49:34;;;;;;;1999.90;999.90;;;;;;;;;;5046168;28;20394;-86
2024/02/10 06:52:02;;;;;;;1999.90;999.90;;;;;;;;;;5053046;28;20440;-86
2024/02/10 06:54:28;;;;;;;1999.90;999.90;;;;;;;;;;5054298;28;20045;-86
2024/02/10 06:56:57;;;;;;;1999.90;999.90;;;;;;;;;;5047245;28;20049;-87
2024/02/10 06:59:25;;;;;;;1999.90;999.90;;;;;;;;;;5045846;28;20049;-86
2024/02/10 07:01:54;;;;;;;1999.90;999.90;;;;;;;;;;5045011;28;20080;-86
2024/02/10 07:04:21;;;;;;;1999.90;999.90;;;;;;;;;;5046663;28;20486;-86
2024/02/10 07:06:53;;;;;;;1999.90;999.90;;;;;;;;;;5048581;28;20485;-87
2024/02/10 07:09:21;;;;;;;1999.90;999.90;;;;;;;;;;5061780;28;20447;-87
2024/02/10 07:11:48;;;;;;;1999.90;999.90;;;;;;;;;;5045542;28;20067;-87
2024/02/10 07:14:16;;;;;;;1999.90;999.90;;;;;;;;;;5050934;28;20048;-86
2024/02/10 07:16:43;;;;;;;1999.90;999.90;;;;;;;;;;5052539;28;20041;-86
2024/02/10 07:19:11;;;;;;;1999.90;999.90;;;;;;;;;;5047898;28;20490;-85
2024/02/10 07:21:38;;;;;;;1999.90;999.90;;;;;;;;;;5056907;28;20045;-86
2024/02/10 07:24:07;;;;;;;1999.90;999.90;;;;;;;;;;5047985;28;20053;-87
2024/02/10 07:26:34;;;;;;;1999.90;999.90;;;;;;;;;;5041118;28;20544;-86
2024/02/10 07:29:01;;;;;;;1999.90;999.90;;;;;;;;;;5050435;28;20160;-87
2024/02/10 07:31:29;;;;;;;1999.90;999.90;;;;;;;;;;5037739;28;20049;-86
2024/02/10 07:33:58;;;;;;;1999.90;999.90;;;;;;;;;;5055013;28;20049;-87
2024/02/10 07:36:32;;;;;;;1999.90;999.90;;;;;;;;;;5050285;28;20045;-86
2024/02/10 07:39:00;;;;;;;1999.90;999.90;;;;;;;;;;5054812;28;20056;-86
2024/02/10 07:41:26;;;;;;;1999.90;999.90;;;;;;;;;;5043950;28;20046;-86
2024/02/10 07:43:53;;;;;;;1999.90;999.90;;;;;;;;;;5043719;28;20053;-86
2024/02/10 07:46:19;;;;;;;1999.90;999.90;;;;;;;;;;5042085;28;20136;-86
2024/02/10 07:48:48;;;;;;;1999.90;999.90;;;;;;;;;;5049748;28;20045;-86
2024/02/10 07:51:15;;;;;;;1999.90;999.90;;;;;;;;;;5042803;28;20095;-86
2024/02/10 07:53:44;;;;;;;1999.90;999.90;;;;;;;;;;5041754;28;20060;-86
2024/02/10 07:56:12;;;;;;;1999.90;999.90;;;;;;;;;;5046319;28;20056;-85
2024/02/10 07:58:40;;;;;;;1999.90;999.90;;;;;;;;;;5053816;28;20079;-86
2024/02/10 08:01:06;;;;;;;1999.90;999.90;;;;;;;;;;5045359;28;20080;-86
2024/02/10 08:03:33;;;;;;;1999.90;999.90;;;;;;;;;;5053773;28;20486;-87
2024/02/10 08:06:01;;;;;;;1999.90;999.90;;;;;;;;;;5048120;28;20055;-86
2024/02/10 08:08:28;;;;;;;1999.90;999.90;;;;;;;;;;5055904;28;20504;-85
2024/02/10 08:10:55;;;;;;;1999.90;999.90;;;;;;;;;;5050057;28;20418;-87
2024/02/10 08:13:24;;;;;;;1999.90;999.90;;;;;;;;;;5062647;28;20047;-86
2024/02/10 08:15:54;;;;;;;1999.90;999.90;;;;;;;;;;5048640;28;20049;-85
2024/02/10 08:18:21;;;;;;;1999.90;999.90;;;;;;;;;;5058857;28;20045;-87
2024/02/10 08:20:48;;;;;;;1999.90;999.90;;;;;;;;;;5057194;28;20046;-86
2024/02/10 08:23:16;;;;;;;1999.90;999.90;;;;;;;;;;5047781;28;20171;-86
2024/02/10 08:25:43;;;;;;;1999.90;999.90;;;;;;;;;;5044744;28;20137;-87
2024/02/10 08:28:11;;;;;;;1999.90;999.90;;;;;;;;;;5049024;28;20059;-87
2024/02/10 08:30:37;;;;;;;1999.90;999.90;;;;;;;;;;5044911;28;20036;-88
2024/02/10 08:33:04;;;;;;;1999.90;999.90;;;;;;;;;;5042600;28;20406;-85
2024/02/10 08:35:31;;;;;;;1999.90;999.90;;;;;;;;;;5046613;28;20045;-83
2024/02/10 08:37:58;;;;;;;1999.90;999.90;;;;;;;;;;5052041;28;20482;-85
2024/02/10 08:40:26;;;;;;;1999.90;999.90;;;;;;;;;;5047773;28;20049;-85
2024/02/10 08:42:53;;;;;;;1999.90;999.90;;;;;;;;;;5060148;28;20409;-87
2024/02/10 08:45:19;;;;;;;1999.90;999.90;;;;;;;;;;5043757;28;20049;-85
2024/02/10 08:47:47;;;;;;;1999.90;999.90;;;;;;;;;;5045827;28;20045;-85
2024/02/10 08:50:14;;;;;;;1999.90;999.90;;;;;;;;;;5047516;28;20136;-85
2024/02/10 08:52:47;;;;;;;1999.90;999.90;;;;;;;;;;5041858;28;20045;-85
2024/02/10 08:55:14;;;;;;;1999.90;999.90;;;;;;;;;;5053329;28;20114;-85
2024/02/10 08:57:43;;;;;;;1999.90;999.90;;;;;;;;;;5045513;28;20053;-85
2024/02/10 09:00:11;;;;;;;1999.90;999.90;;;;;;;;;;5055670;28;20063;-85
2024/02/10 09:02:38;;;;;;;1999.90;999.90;;;;;;;;;;5048203;28;20081;-84
2024/02/10 09:05:06;;;;;;;1999.90;999.90;;;;;;;;;;5042884;28;20046;-85
2024/02/10 09:07:32;;;;;;;1999.90;999.90;;;;;;;;;;5045566;28;20042;-83
2024/02/10 09:09:58;;;;;;;1999.90;999.90;;;;;;;;;;5047151;28;20095;-83
2024/02/10 09:12:25;;;;;;;1999.90;999.90;;;;;;;;;;5057179;28;20062;-87
2024/02/10 09:14:53;;;;;;;1999.90;999.90;;;;;;;;;;5040427;28;20057;-85
2024/02/10 09:17:19;;;;;;;1999.90;999.90;;;;;;;;;;5056636;28;20045;-85
2024/02/10 09:19:46;;;;;;;1999.90;999.90;;;;;;;;;;5051536;28;20053;-83
2024/02/10 09:22:14;;;;;;;1999.90;999.90;;;;;;;;;;5057840;28;20048;-85
2024/02/10 09:24:44;;;;;;;1999.90;999.90;;;;;;;;;;5046098;28;20045;-88
2024/02/10 09:27:11;;;;;;;1999.90;999.90;;;;;;;;;;5051581;28;20063;-87
2024/02/10 09:29:37;;;;;;;1999.90;999.90;;;;;;;;;;5045376;28;20409;-87
2024/02/10 09:32:06;;;;;;;1999.90;999.90;;;;;;;;;;5041809;28;20421;-87
2024/02/10 09:34:33;;;;;;;1999.90;999.90;;;;;;;;;;5043661;28;20389;-87
2024/02/10 09:36:59;;;;;;;1999.90;999.90;;;;;;;;;;5045066;28;20048;-86
2024/02/10 09:39:26;;;;;;;1999.90;999.90;;;;;;;;;;5045639;28;20053;-86
2024/02/10 09:41:56;;;;;;;1999.90;999.90;;;;;;;;;;5048074;28;20064;-86
2024/02/10 09:44:22;;;;;;;1999.90;999.90;;;;;;;;;;5041980;28;20057;-87
2024/02/10 09:46:51;;;;;;;1999.90;999.90;;;;;;;;;;5048678;28;20048;-87
2024/02/10 09:49:22;;;;;;;1999.90;999.90;;;;;;;;;;5048331;28;20553;-86
2024/02/10 09:51:51;;;;;;;1999.90;999.90;;;;;;;;;;5044082;28;20081;-86
2024/02/10 09:54:17;;;;;;;1999.90;999.90;;;;;;;;;;5049278;28;20048;-87
2024/02/10 09:56:44;;;;;;;1999.90;999.90;;;;;;;;;;5046423;28;20057;-87
2024/02/10 09:59:15;;;;;;;1999.90;999.90;;;;;;;;;;5042896;28;20044;-87
2024/02/10 10:01:41;;;;;;;1999.90;999.90;;;;;;;;;;5049620;28;20056;-87
2024/02/10 10:04:11;;;;;;;1999.90;999.90;;;;;;;;;;5044976;28;20114;-88
2024/02/10 10:06:43;;;;;;;1999.90;999.90;;;;;;;;;;5052559;28;20057;-87
2024/02/10 10:09:09;;;;;;;1999.90;999.90;;;;;;;;;;5047667;28;20489;-88
2024/02/10 10:11:39;;;;;;;1999.90;999.90;;;;;;;;;;5047628;28;20051;-88
2024/02/10 10:14:07;;;;;;;1999.90;999.90;;;;;;;;;;5037550;28;20667;-87
2024/02/10 10:16:34;;;;;;;1999.90;999.90;;;;;;;;;;5043674;28;20048;-86
2024/02/10 10:19:00;;;;;;;1999.90;999.90;;;;;;;;;;5050346;28;20055;-87
2024/02/10 10:21:28;;;;;;;1999.90;999.90;;;;;;;;;;5046714;28;20048;-87
2024/02/10 10:24:06;;;;;;;1999.90;999.90;;;;;;;;;;5056067;28;20084;-87
2024/02/10 10:26:32;;;;;;;1999.90;999.90;;;;;;;;;;5051818;28;20049;-87
2024/02/10 10:29:00;;;;;;;1999.90;999.90;;;;;;;;;;5048395;28;20051;-88
2024/02/10 10:31:27;;;;;;;1999.90;999.90;;;;;;;;;;5048916;28;20045;-87
2024/02/10 10:33:54;;;;;;;1999.90;999.90;;;;;;;;;;5055684;28;20535;-88
2024/02/10 10:36:21;;;;;;;1999.90;999.90;;;;;;;;;;5043931;28;20049;-88
2024/02/10 10:38:48;;;;;;;1999.90;999.90;;;;;;;;;;5048880;28;20063;-87
2024/02/10 10:41:19;;;;;;;1999.90;999.90;;;;;;;;;;5041872;28;20049;-88
2024/02/10 10:43:45;;;;;;;1999.90;999.90;;;;;;;;;;5043183;28;20192;-87
2024/02/10 10:46:16;;;;;;;1999.90;999.90;;;;;;;;;;5043087;28;20045;-87
2024/02/10 10:48:43;;;;;;;1999.90;999.90;;;;;;;;;;5051170;28;20136;-87
2024/02/10 10:51:10;;;;;;;1999.90;999.90;;;;;;;;;;5040707;28;20050;-85
2024/02/10 10:53:40;;;;;;;1999.90;999.90;;;;;;;;;;5049770;28;20056;-87
2024/02/10 10:56:08;;;;;;;1999.90;999.90;;;;;;;;;;5054363;28;20045;-87
2024/02/10 10:58:40;;;;;;;1999.90;999.90;;;;;;;;;;5044992;28;20059;-86
2024/02/10 11:01:08;;;;;;;1999.90;999.90;;;;;;;;;;5047244;28;20393;-87
2024/02/10 11:03:41;;;;;;;1999.90;999.90;;;;;;;;;;5040705;28;20057;-87
2024/02/10 11:06:12;;;;;;;1999.90;999.90;;;;;;;;;;5042862;28;20136;-88
2024/02/10 11:08:42;;;;;;;1999.90;999.90;;;;;;;;;;5047621;28;20123;-87
2024/02/10 11:11:10;;;;;;;1999.90;999.90;;;;;;;;;;5046683;28;20046;-90
2024/02/10 11:13:39;;;;;;;1999.90;999.90;;;;;;;;;;5043142;28;20057;-88
2024/02/10 11:16:10;;;;;;;1999.90;999.90;;;;;;;;;;5052960;28;20583;-88
2024/02/10 11:18:39;;;;;;;1999.90;999.90;;;;;;;;;;5042821;28;20474;-88
2024/02/10 11:21:21;;;;;;;1999.90;999.90;;;;;;;;;;5043179;28;20053;-87
2024/02/10 11:23:59;;;;;;;1999.90;999.90;;;;;;;;;;5042125;28;20045;-86
2024/02/10 11:26:27;;;;;;;1999.90;999.90;;;;;;;;;;5040418;28;20061;-87
2024/02/10 11:29:02;;;;;;;1999.90;999.90;;;;;;;;;;5052247;28;20053;-89
2024/02/10 11:31:29;;;;;;;1999.90;999.90;;;;;;;;;;5051802;28;20045;-87
2024/02/10 11:34:01;;;;;;;1999.90;999.90;;;;;;;;;;5040033;28;20397;-87
2024/02/10 11:36:28;;;;;;;1999.90;999.90;;;;;;;;;;5049696;28;20054;-87
2024/02/10 11:38:55;;;;;;;1999.90;999.90;;;;;;;;;;5049000;28;20076;-87
2024/02/10 11:41:21;;;;;;;1999.90;999.90;;;;;;;;;;5052501;28;20842;-86
2024/02/10 11:43:50;;;;;;;1999.90;999.90;;;;;;;;;;5056701;28;20474;-88
2024/02/10 11:46:18;;;;;;;1999.90;999.90;;;;;;;;;;5051502;28;20055;-88
2024/02/10 11:48:45;;;;;;;1999.90;999.90;;;;;;;;;;5048766;28;20501;-88
2024/02/10 11:51:11;;;;;;;1999.90;999.90;;;;;;;;;;5054075;28;20052;-87
2024/02/10 11:53:45;;;;;;;1999.90;999.90;;;;;;;;;;5042198;28;20049;-88
2024/02/10 11:56:12;;;;;;;1999.90;999.90;;;;;;;;;;5054861;28;20045;-88
2024/02/10 11:58:38;;;;;;;1999.90;999.90;;;;;;;;;;5054278;28;20055;-87
2024/02/10 12:01:05;;;;;;;1999.90;999.90;;;;;;;;;;5050035;28;20053;-89
2024/02/10 12:03:33;;;;;;;1999.90;999.90;;;;;;;;;;5047598;28;20049;-87
2024/02/10 12:06:01;;;;;;;1999.90;999.90;;;;;;;;;;5051856;28;20052;-86
2024/02/10 12:08:29;;;;;;;1999.90;999.90;;;;;;;;;;5051358;28;20091;-86
2024/02/10 12:10:56;;;;;;;1999.90;999.90;;;;;;;;;;5053064;28;20530;-86
2024/02/10 12:13:25;;;;;;;1999.90;999.90;;;;;;;;;;5048366;28;20406;-88
2024/02/10 12:15:52;;;;;;;1999.90;999.90;;;;;;;;;;5057300;28;20057;-88
2024/02/10 12:18:19;;;;;;;1999.90;999.90;;;;;;;;;;5047168;28;20048;-87
2024/02/10 12:20:51;;;;;;;1999.90;999.90;;;;;;;;;;5047200;28;20941;-87
2024/02/10 12:23:18;;;;;;;1999.90;999.90;;;;;;;;;;5054725;28;20098;-89
2024/02/10 12:25:45;;;;;;;1999.90;999.90;;;;;;;;;;5050055;28;20088;-90
2024/02/10 12:28:11;;;;;;;1999.90;999.90;;;;;;;;;;5056244;28;20052;-89
2024/02/10 12:30:38;;;;;;;1999.90;999.90;;;;;;;;;;5046966;28;20060;-88
2024/02/10 12:33:06;;;;;;;1999.90;999.90;;;;;;;;;;5050965;28;20053;-89
2024/02/10 12:35:32;;;;;;;1999.90;999.90;;;;;;;;;;5052145;28;20485;-90
2024/02/10 12:38:01;;;;;;;1999.90;999.90;;;;;;;;;;5044873;28;20076;-89
2024/02/10 12:40:27;;;;;;;1999.90;999.90;;;;;;;;;;5064357;28;20052;-89
2024/02/10 12:42:54;;;;;;;1999.90;999.90;;;;;;;;;;5045246;28;20088;-89
2024/02/10 12:45:20;;;;;;;1999.90;999.90;;;;;;;;;;5055107;28;20064;-90
2024/02/10 12:47:47;;;;;;;1999.90;999.90;;;;;;;;;;5052832;28;20041;-90
2024/02/10 12:50:15;;;;;;;1999.90;999.90;;;;;;;;;;5041137;28;20079;-90
2024/02/10 12:52:45;;;;;;;1999.90;999.90;;;;;;;;;;5045070;28;20454;-90
2024/02/10 12:55:13;;;;;;;1999.90;999.90;;;;;;;;;;5046241;28;20486;-90
2024/02/10 12:57:40;;;;;;;1999.90;999.90;;;;;;;;;;5041616;28;20064;-89
2024/02/10 13:00:18;;;;;;;1999.90;999.90;;;;;;;;;;5054387;28;20072;-89
2024/02/10 13:02:46;;;;;;;1999.90;999.90;;;;;;;;;;5044189;28;20052;-90
2024/02/10 13:05:13;;;;;;;1999.90;999.90;;;;;;;;;;5045444;28;20045;-89
2024/02/10 13:07:41;;;;;;;1999.90;999.90;;;;;;;;;;5046616;28;20053;-90
2024/02/10 13:10:18;;;;;;;1999.90;999.90;;;;;;;;;;5045722;28;20040;-89
2024/02/10 13:12:48;;;;;;;1999.90;999.90;;;;;;;;;;5052141;28;20050;-89
2024/02/10 13:15:14;;;;;;;1999.90;999.90;;;;;;;;;;5049839;28;20099;-89
2024/02/10 13:17:41;;;;;;;1999.90;999.90;;;;;;;;;;5050417;28;20056;-87
2024/02/10 13:20:09;;;;;;;1999.90;999.90;;;;;;;;;;5048420;28;20049;-89
2024/02/10 13:22:35;;;;;;;1999.90;999.90;;;;;;;;;;5047751;28;20099;-89
2024/02/10 13:25:02;;;;;;;1999.90;999.90;;;;;;;;;;5046801;28;20508;-89
2024/02/10 13:27:29;;;;;;;1999.90;999.90;;;;;;;;;;5050904;28;20060;-89
2024/02/10 13:29:58;;;;;;;1999.90;999.90;;;;;;;;;;5049583;28;20048;-89
2024/02/10 13:32:25;;;;;;;1999.90;999.90;;;;;;;;;;5050704;28;20081;-89
2024/02/10 13:34:55;;;;;;;1999.90;999.90;;;;;;;;;;5050925;28;20045;-89
2024/02/10 14:02:38;;;;;;;1999.90;999.90;;;;;;;;;;5047358;28;20045;-88
2024/02/10 14:04:52;;;;;;;1999.90;999.90;;;;;;;;;;5048419;28;20081;-89
2024/02/10 14:08:00;;;;;;;1999.90;999.90;;;;;;;;;;5044866;28;20056;-89
2024/02/10 14:10:17;;;;;;;1999.90;999.90;;;;;;;;;;5043036;28;20073;-88